createdAt,value
2019-02-23T00:03:33.132Z,-0.11
2019-02-23T00:08:37.495Z,-0.72
2019-02-23T00:13:42.032Z,-0.74
2019-02-23T00:18:46.406Z,-0.95
2019-02-23T00:23:50.788Z,-0.75
2019-02-23T00:28:56.217Z,-0.51
2019-02-23T00:34:00.559Z,-0.56
2019-02-23T00:39:06.175Z,-0.44
2019-02-23T00:44:12.141Z,-0.81
2019-02-23T00:49:16.526Z,-0.88
2019-02-23T00:54:20.878Z,-0.40
2019-02-23T00:59:25.249Z,-0.29
2019-02-23T01:04:29.630Z,-0.36
2019-02-23T01:09:34.019Z,-0.34
2019-02-23T01:14:38.394Z,-0.83
2019-02-23T01:19:47.821Z,-0.54
2019-02-23T01:24:48.930Z,-1.03
2019-02-23T01:29:53.306Z,-0.87
2019-02-23T01:34:57.728Z,-0.79
2019-02-23T01:40:02.179Z,-0.98
2019-02-23T01:45:08.141Z,-1.57
2019-02-23T01:50:12.599Z,-1.55
2019-02-23T01:55:17.059Z,-1.38
2019-02-23T02:00:22.191Z,-1.17
2019-02-23T02:05:26.546Z,-1.60
2019-02-23T02:10:31.059Z,-1.57
2019-02-23T02:15:35.674Z,-1.28
2019-02-23T02:20:40.134Z,-1.28
2019-02-23T02:25:44.511Z,-1.25
2019-02-23T02:30:49.828Z,-1.20
2019-02-23T02:35:54.182Z,-0.81
2019-02-23T02:40:58.556Z,-1.07
2019-02-23T02:46:02.942Z,-1.19
2019-02-23T02:51:07.298Z,-1.19
2019-02-23T02:56:11.655Z,-0.85
2019-02-23T03:01:16.042Z,-0.80
2019-02-23T03:06:20.386Z,-1.01
2019-02-23T03:11:24.954Z,-0.84
2019-02-23T03:16:30.388Z,-0.80
2019-02-23T03:21:34.850Z,-1.05
2019-02-23T03:26:39.306Z,-1.01
2019-02-23T03:31:43.685Z,-1.12
2019-02-23T03:36:48.055Z,-0.88
2019-02-23T03:41:52.396Z,-0.75
2019-02-23T03:46:56.780Z,-0.93
2019-02-23T03:52:01.194Z,-0.94
2019-02-23T03:57:05.562Z,-1.07
2019-02-23T04:02:10.031Z,-0.95
2019-02-23T04:07:14.386Z,-0.98
2019-02-23T04:12:18.738Z,-1.31
2019-02-23T04:17:23.115Z,-1.19
2019-02-23T04:22:27.578Z,-1.23
2019-02-23T04:27:32.015Z,-1.14
2019-02-23T04:32:36.455Z,-1.42
2019-02-23T04:37:40.992Z,-1.30
2019-02-23T04:42:45.347Z,-1.48
2019-02-23T04:47:49.772Z,-1.78
2019-02-23T04:52:54.150Z,-1.81
2019-02-23T04:57:58.544Z,-1.69
2019-02-23T05:03:02.913Z,-1.54
2019-02-23T05:08:07.306Z,-1.41
2019-02-23T05:13:11.638Z,-1.79
2019-02-23T05:18:16.041Z,-1.96
2019-02-23T05:23:20.393Z,-1.69
2019-02-23T05:28:24.788Z,-1.68
2019-02-23T05:33:29.325Z,-1.43
2019-02-23T05:38:33.686Z,-1.47
2019-02-23T05:43:38.142Z,-1.72
2019-02-23T05:48:42.508Z,-1.67
2019-02-23T05:53:46.900Z,-1.78
2019-02-23T05:58:51.273Z,-1.52
2019-02-23T06:03:55.632Z,-1.56
2019-02-23T06:09:00.047Z,-1.47
2019-02-23T06:14:06.040Z,-1.52
2019-02-23T06:19:10.438Z,-1.38
2019-02-23T06:24:14.788Z,-1.22
2019-02-23T06:29:19.253Z,-1.48
2019-02-23T06:34:23.617Z,-1.26
2019-02-23T06:39:28.036Z,-1.33
2019-02-23T06:44:32.465Z,-1.36
2019-02-23T06:49:36.870Z,-0.86
2019-02-23T06:54:41.628Z,-0.90
2019-02-23T06:59:46.091Z,-0.44
2019-02-23T07:04:50.456Z,-0.38
2019-02-23T07:09:54.863Z,-0.21
2019-02-23T07:15:00.358Z,-0.55
2019-02-23T07:20:07.363Z,-0.26
2019-02-23T07:25:11.726Z,-0.42
2019-02-23T07:30:16.092Z,-0.32
2019-02-23T07:35:20.561Z,-0.03
2019-02-23T07:40:24.997Z,0.02
2019-02-23T07:45:29.428Z,-0.27
2019-02-23T07:50:33.801Z,0.13
2019-02-23T07:55:38.162Z,0.26
2019-02-23T08:00:42.538Z,0.38
2019-02-23T08:05:46.884Z,0.60
2019-02-23T08:10:51.260Z,0.54
2019-02-23T08:15:55.707Z,0.11
2019-02-23T08:21:00.109Z,0.88
2019-02-23T08:26:04.559Z,0.61
2019-02-23T08:31:08.911Z,0.37
2019-02-23T08:36:13.271Z,0.51
2019-02-23T08:41:17.869Z,0.47
2019-02-23T08:46:22.307Z,0.67
2019-02-23T08:51:26.612Z,0.81
2019-02-23T08:56:31.154Z,0.85
2019-02-23T09:01:35.573Z,0.84
2019-02-23T09:06:39.933Z,1.18
2019-02-23T09:11:44.309Z,1.19
2019-02-23T09:16:48.664Z,1.35
2019-02-23T09:21:53.030Z,1.11
2019-02-23T09:26:57.377Z,1.35
2019-02-23T09:32:01.756Z,1.47
2019-02-23T09:37:06.090Z,1.76
2019-02-23T09:42:10.523Z,1.96
2019-02-23T09:47:14.944Z,1.90
2019-02-23T09:52:19.305Z,1.56
2019-02-23T09:57:23.669Z,1.88
2019-02-23T10:02:28.026Z,2.19
2019-02-23T10:07:32.380Z,2.35
2019-02-23T10:12:36.723Z,2.07
2019-02-23T10:17:41.103Z,2.28
2019-02-23T10:22:45.507Z,2.43
2019-02-23T10:27:49.878Z,2.18
2019-02-23T10:32:54.316Z,2.55
2019-02-23T10:37:58.784Z,2.59
2019-02-23T10:43:03.145Z,2.75
2019-02-23T10:48:08.587Z,2.96
2019-02-23T10:53:12.991Z,2.88
2019-02-23T10:58:18.435Z,2.68
2019-02-23T11:03:23.027Z,2.70
2019-02-23T11:08:27.468Z,3.06
2019-02-23T11:13:31.824Z,3.18
2019-02-23T11:18:36.467Z,2.93
2019-02-23T11:23:44.474Z,2.96
2019-02-23T11:28:47.991Z,3.03
2019-02-23T11:33:52.390Z,2.98
2019-02-23T11:38:56.752Z,3.48
2019-02-23T11:44:01.116Z,3.37
2019-02-23T11:49:08.141Z,3.75
2019-02-23T11:54:11.595Z,3.56
2019-02-23T11:59:15.979Z,3.76
2019-02-23T12:04:20.335Z,3.51
2019-02-23T12:09:24.729Z,3.88
2019-02-23T12:14:29.088Z,4.14
2019-02-23T12:19:33.423Z,4.18
2019-02-23T12:24:37.816Z,4.66
2019-02-23T12:29:42.183Z,4.02
2019-02-23T12:34:46.528Z,4.39
2019-02-23T12:39:50.892Z,4.00
2019-02-23T12:44:55.315Z,4.47
2019-02-23T12:49:59.702Z,4.64
2019-02-23T12:55:04.991Z,4.60
2019-02-23T13:00:14.905Z,4.75
2019-02-23T13:05:19.252Z,4.65
2019-02-23T13:10:23.590Z,4.57
2019-02-23T13:15:43.143Z,4.59
2019-02-23T13:20:59.646Z,4.70
2019-02-23T13:26:16.217Z,4.86
2019-02-23T13:31:50.419Z,4.81
2019-02-23T13:37:19.022Z,4.74
2019-02-23T13:42:44.600Z,4.64
2019-02-23T13:48:16.733Z,4.71
2019-02-23T13:53:36.142Z,4.80
2019-02-23T13:58:55.577Z,4.79
2019-02-23T14:04:15.378Z,4.87
2019-02-23T14:09:28.400Z,4.96
2019-02-23T14:14:38.735Z,5.05
2019-02-23T14:19:55.431Z,4.95
2019-02-23T14:25:15.172Z,4.73
2019-02-23T14:30:28.665Z,4.83
2019-02-23T14:35:42.045Z,4.96
2019-02-23T14:41:01.760Z,4.82
2019-02-23T14:46:12.123Z,4.74
2019-02-23T14:51:37.413Z,4.77
2019-02-23T14:57:10.699Z,4.62
2019-02-23T15:02:50.034Z,4.66
2019-02-23T15:08:18.460Z,4.74
2019-02-23T15:13:27.695Z,4.54
2019-02-23T15:18:38.001Z,4.67
2019-02-23T15:24:17.621Z,4.64
2019-02-23T15:29:40.196Z,4.40
2019-02-23T15:35:04.330Z,4.63
2019-02-23T15:40:29.806Z,4.61
2019-02-23T15:45:52.401Z,4.41
2019-02-23T15:50:56.859Z,4.30
2019-02-23T15:56:01.324Z,4.37
2019-02-23T16:01:06.066Z,4.37
2019-02-23T16:06:10.419Z,4.13
2019-02-23T16:11:15.866Z,4.26
2019-02-23T16:16:20.292Z,3.95
2019-02-23T16:21:24.674Z,3.96
2019-02-23T16:26:29.997Z,3.66
2019-02-23T16:31:34.433Z,3.64
2019-02-23T16:36:38.891Z,3.82
2019-02-23T16:41:43.377Z,3.48
2019-02-23T16:46:47.743Z,3.38
2019-02-23T16:51:52.135Z,3.35
2019-02-23T16:56:56.516Z,3.46
2019-02-23T17:02:00.907Z,3.45
2019-02-23T17:07:05.362Z,3.20
2019-02-23T17:12:09.811Z,3.26
2019-02-23T17:17:14.206Z,3.23
2019-02-23T17:22:19.645Z,3.00
2019-02-23T17:27:35.508Z,3.21
2019-02-23T17:32:30.102Z,2.86
2019-02-23T17:37:35.528Z,2.83
2019-02-23T17:42:39.863Z,3.04
2019-02-23T17:47:44.225Z,2.78
2019-02-23T17:52:48.579Z,2.85
2019-02-23T17:57:52.991Z,2.83
2019-02-23T18:02:57.361Z,2.64
2019-02-23T18:08:01.730Z,2.76
2019-02-23T18:13:06.175Z,2.66
2019-02-23T18:18:10.531Z,2.54
2019-02-23T18:23:16.696Z,2.50
2019-02-23T18:28:21.150Z,2.60
2019-02-23T18:33:25.551Z,2.34
2019-02-23T18:38:29.927Z,2.37
2019-02-23T18:43:34.340Z,2.27
2019-02-23T18:48:38.888Z,2.32
2019-02-23T18:53:43.507Z,2.39
2019-02-23T18:58:47.962Z,2.48
2019-02-23T19:03:52.286Z,2.30
2019-02-23T19:08:56.758Z,2.23
2019-02-23T19:14:01.282Z,2.17
2019-02-23T19:19:05.694Z,2.06
2019-02-23T19:24:10.111Z,2.08
2019-02-23T19:29:14.463Z,2.13
2019-02-23T19:34:18.811Z,2.28
2019-02-23T19:39:23.397Z,2.06
2019-02-23T19:44:27.750Z,1.97
2019-02-23T19:49:32.855Z,1.90
2019-02-23T19:54:37.238Z,2.10
2019-02-23T19:59:41.624Z,1.89
2019-02-23T20:04:46.151Z,1.60
2019-02-23T20:09:50.533Z,1.78
2019-02-23T20:14:54.920Z,1.81
2019-02-23T20:19:59.306Z,1.63
2019-02-23T20:25:03.689Z,1.57
2019-02-23T20:30:10.236Z,1.82
2019-02-23T20:35:14.776Z,1.55
2019-02-23T20:40:19.314Z,1.30
2019-02-23T20:45:23.683Z,1.46
2019-02-23T20:50:28.410Z,1.47
2019-02-23T20:55:32.747Z,1.31
2019-02-23T21:00:37.133Z,1.45
2019-02-23T21:05:41.479Z,1.43
2019-02-23T21:10:45.901Z,1.37
2019-02-23T21:15:50.456Z,1.28
2019-02-23T21:20:54.887Z,1.18
2019-02-23T21:25:59.261Z,1.08
2019-02-23T21:31:03.699Z,1.18
2019-02-23T21:36:08.223Z,1.18
2019-02-23T21:41:12.614Z,1.23
2019-02-23T21:46:17.034Z,1.09
2019-02-23T21:51:21.384Z,1.07
2019-02-23T21:56:25.765Z,1.07
2019-02-23T22:01:30.331Z,1.04
2019-02-23T22:06:34.975Z,0.98
2019-02-23T22:11:39.287Z,1.10
2019-02-23T22:16:43.725Z,0.89
2019-02-23T22:21:48.187Z,0.75
2019-02-23T22:26:52.524Z,1.02
2019-02-23T22:31:56.964Z,1.15
2019-02-23T22:37:01.421Z,0.84
2019-02-23T22:42:05.984Z,0.65
2019-02-23T22:47:10.477Z,1.02
2019-02-23T22:52:15.031Z,0.88
2019-02-23T22:57:19.403Z,0.99
2019-02-23T23:02:23.797Z,1.14
2019-02-23T23:07:28.435Z,0.84
2019-02-23T23:12:32.790Z,0.89
2019-02-23T23:17:38.112Z,0.86
2019-02-23T23:22:42.636Z,0.71
2019-02-23T23:27:49.532Z,0.64
2019-02-23T23:32:54.069Z,0.78
2019-02-23T23:37:58.490Z,0.98
2019-02-23T23:43:02.858Z,1.02
2019-02-23T23:48:07.231Z,0.92
2019-02-23T23:53:11.614Z,0.71
2019-02-23T23:58:16.037Z,0.76
